This is the latest recevied weather packets stored in our database for station/object DL9MSR. If no packets are shown the sender has not sent any weather packets the latest 10 day(s).
| Time | Temp. | Humidity | Pressure | Rain* | Wind** | Luminosity | Snow |
|---|---|---|---|---|---|---|---|
| 1777763120 | 13.89° C | 92% | 1015.8 hPa | 3.3 mm | - | - | - |
| 1777762519 | 14.44° C | 91% | 1016.3 hPa | 3.3 mm | - | - | - |
| 1777760119 | 15° C | 87% | 1017.5 hPa | 0 mm | - | - | - |
| 1777759519 | 15° C | 86% | 1016.5 hPa | 0 mm | - | - | - |
| 1777758920 | 15° C | 85% | 1015.8 hPa | 0 mm | - | - | - |
| 1777757119 | 15° C | 84% | 1015.6 hPa | 0 mm | - | - | - |
| 1777756519 | 15° C | 84% | 1015.6 hPa | 0 mm | - | - | - |
| 1777751721 | 16.67° C | 75% | 1015.7 hPa | 0 mm | - | - | - |
| 1777750519 | 17.22° C | 73% | - | 0 mm | - | - | - |
| 1777748719 | 17.78° C | 70% | 1015.5 hPa | 0 mm | - | - | - |
| 1777746339 | 18.89° C | 67% | 1015.4 hPa | 0 mm | - | - | - |
| 1777745119 | 19.44° C | 65% | 1015.3 hPa | 0 mm | - | - | - |
| 1777744519 | 19.44° C | 63% | 1015.5 hPa | 0 mm | - | - | - |
| 1777740920 | 24.44° C | 49% | 1015.1 hPa | 0 mm | - | - | - |
| 1777737321 | 26.11° C | 46% | 1015.4 hPa | 0 mm | - | - | - |
| 1777730120 | 27.78° C | 38% | 1016.3 hPa | 0 mm | - | - | - |
| 1777728320 | 28.89° C | 35% | 1016.6 hPa | 0 mm | - | - | - |
| 1777727141 | 27.78° C | 35% | 1016.8 hPa | 0 mm | - | - | - |
| 1777726520 | 27.78° C | 36% | 1016.9 hPa | 0 mm | - | - | - |
| 1777723520 | 27.22° C | 35% | 1017.3 hPa | 0 mm | - | - | - |
| 1777716919 | 25.56° C | 39% | 1018.6 hPa | 0 mm | - | - | - |
| 1777716319 | 25.56° C | 40% | 1018.8 hPa | 0 mm | - | - | - |
| 1777715720 | 24.44° C | 41% | 1018.8 hPa | 0 mm | - | - | - |
| 1777714617 | 23.89° C | 43% | 1018.9 hPa | 0 mm | - | - | - |
| 1777713919 | 23.89° C | 44% | 1018.9 hPa | 0 mm | - | - | - |
* Rain latest hour (hover to see other rain measurements)
** Current wind speed in m/s (hover to see current wind gust speed)